North Ogden, Utah
Current Conditions -  °F | °C
As of 4:53 AM on Thursday 23 Oct 2014 (Local Time) from KOGD Reporting Station
Clear Clear  
Wind Chill: 41°   Ceiling: Unl
Heat Index: 45°   Visibility: 10mi
Dew Point: 27°   Wind: 8mph
Humidity: 49%   Direction: 150°SSE
Pressure: 30.13"   Gusts: NA
Location:  41.3178°N, 111.954°W
Report Text: KOGD 231053Z 15007KT 10SM CLR 07/M03 A3013 RMK AO2 SLP179 T00721028
Loading
Personal Weather Stations






























Interactive Weather Map
Tropical Storm Tracking
New forecast layout! Learn more

10-Day Weather Forecast

Advertisements
Track Severe Weather on mobile